CHICAGO O'HARE INTL

KORD (ORD)
Chicago, Illinois
Towered

Vatsim Metar:
KORD 282251Z 23007KT 10SM FEW150 SCT170 BKN210 M07/M13 A3021 RMK AO2 SLP241 T10671133

CHICAGO O'HARE INTL ATC

ORD_S_TWR - 120.750 - Chris
Chicago Center. Chicago and Milwaukee area departures maintain 250kt until advised. Take a peek behind the scopes on YouTube @ZAU-Ryan

Traffic

Inbound:
Ident
Type
Name
ETA
Phase
DAL5193
B738
Harrington Henry KLGA
Deplaning
NRT412
B738
David Whaley KIAH
Deplaning
WJA1588
B737
Lucas Geller CYYC
23:22 Z
Descent
N312WC
SR20
Bjorn Billhardt KAUS
23:26 Z
Descent
GJS4482
CRJ7
Steve Horn KAZO
23:32 Z
Cruse
JBU105
A21N
Fabricio Mora MROC
23:43 Z
Cruse
RPA3496
E75L
Dominic KHPN
23:49 Z
Cruse
UAL1778
A320
1455259 KVPS
23:51 Z
Cruse
WAT3439
A320
Ronald Price KTUL
Boarding
AAL891
B738
Shauna Harper KMSO
00:12 Z
Cruse
QFA7554
A339
Taylor Dunphy KJFK
00:31 Z
Climb
AAL490
A321
Nasiir M. KPHL
Boarding
WAT3972
A320
Casey Phillips KORF
Boarding
AAL2014
A21N
Nicholas Quick KGRR
00:31 Z
Descent
BAW2WC
A339
Christopher EDDF
00:36 Z
Cruse
JBU1532
A321
Raymond KBOS
04:58 Z
Taxiing Out
WAT627
B737
Rene Arrayet SCEL
Taxiing Out
AAL2311
B738
George Morris KORD
01:12 Z
Climb
SWR8T
A339
Dylan Boller LSZH
05:15 Z
Descent

Outbound:
Ident
Type
Name
Destination
Phase
GLBL737
B738
Charles Prenaveau KOWD
CYYZ
Boarding
ENY3302
E75L
Sara Raab KDFW
KLGA
Taxiing Out
UAL2325
A320
Daniel K FKYS
KMSP
Climb
ITY184
A320
Tommaso Pastorelli LIRF
KJFK
Climb

IAPs